sensor_id;sensor_type;location;lat;lon;timestamp;temperature;humidity
45837;DHT22;31548;51.420;-0.040;2023-04-30T00:00:09;11.70;99.90
45837;DHT22;31548;51.420;-0.040;2023-04-30T00:02:37;11.70;99.90
45837;DHT22;31548;51.420;-0.040;2023-04-30T00:05:06;11.70;99.90
45837;DHT22;31548;51.420;-0.040;2023-04-30T00:07:34;11.60;99.90
45837;DHT22;31548;51.420;-0.040;2023-04-30T00:10:02;11.60;99.90
45837;DHT22;31548;51.420;-0.040;2023-04-30T00:12:31;11.50;99.90
45837;DHT22;31548;51.420;-0.040;2023-04-30T00:14:59;11.50;99.90
45837;DHT22;31548;51.420;-0.040;2023-04-30T00:17:29;11.50;99.90
45837;DHT22;31548;51.420;-0.040;2023-04-30T00:19:57;11.50;99.90
45837;DHT22;31548;51.420;-0.040;2023-04-30T00:22:24;11.50;99.90
45837;DHT22;31548;51.420;-0.040;2023-04-30T00:24:52;11.40;99.90
45837;DHT22;31548;51.420;-0.040;2023-04-30T00:27:20;11.40;99.90
45837;DHT22;31548;51.420;-0.040;2023-04-30T00:29:48;11.40;99.90
45837;DHT22;31548;51.420;-0.040;2023-04-30T00:32:16;11.30;99.90
45837;DHT22;31548;51.420;-0.040;2023-04-30T00:34:45;11.30;99.90
45837;DHT22;31548;51.420;-0.040;2023-04-30T00:37:12;11.30;99.90
45837;DHT22;31548;51.420;-0.040;2023-04-30T00:39:40;11.30;99.90
45837;DHT22;31548;51.420;-0.040;2023-04-30T00:42:09;11.20;99.90
45837;DHT22;31548;51.420;-0.040;2023-04-30T00:44:36;11.20;99.90
45837;DHT22;31548;51.420;-0.040;2023-04-30T00:47:05;11.20;99.90
45837;DHT22;31548;51.420;-0.040;2023-04-30T00:49:33;11.10;99.90
45837;DHT22;31548;51.420;-0.040;2023-04-30T00:52:01;11.10;99.90
45837;DHT22;31548;51.420;-0.040;2023-04-30T00:54:29;11.00;99.90
45837;DHT22;31548;51.420;-0.040;2023-04-30T00:56:57;11.00;99.90
45837;DHT22;31548;51.420;-0.040;2023-04-30T00:59:26;10.90;99.90
45837;DHT22;31548;51.420;-0.040;2023-04-30T01:01:56;10.90;99.90
45837;DHT22;31548;51.420;-0.040;2023-04-30T01:04:27;10.90;99.90
45837;DHT22;31548;51.420;-0.040;2023-04-30T01:06:55;10.80;99.90
45837;DHT22;31548;51.420;-0.040;2023-04-30T01:09:23;10.80;99.90
45837;DHT22;31548;51.420;-0.040;2023-04-30T01:14:34;10.70;99.90
45837;DHT22;31548;51.420;-0.040;2023-04-30T01:17:18;10.70;99.90
45837;DHT22;31548;51.420;-0.040;2023-04-30T01:19:52;10.60;99.90
45837;DHT22;31548;51.420;-0.040;2023-04-30T01:28:03;10.50;99.90
45837;DHT22;31548;51.420;-0.040;2023-04-30T01:30:36;10.40;99.90
45837;DHT22;31548;51.420;-0.040;2023-04-30T01:33:04;10.40;99.90
45837;DHT22;31548;51.420;-0.040;2023-04-30T01:36:00;10.30;99.90
45837;DHT22;31548;51.420;-0.040;2023-04-30T01:39:10;10.30;99.90
45837;DHT22;31548;51.420;-0.040;2023-04-30T01:45:05;10.20;99.90
45837;DHT22;31548;51.420;-0.040;2023-04-30T01:53:04;10.10;99.90
45837;DHT22;31548;51.420;-0.040;2023-04-30T01:55:45;10.10;99.90
45837;DHT22;31548;51.420;-0.040;2023-04-30T01:58:18;10.00;99.90
45837;DHT22;31548;51.420;-0.040;2023-04-30T02:00:47;10.00;99.90
45837;DHT22;31548;51.420;-0.040;2023-04-30T02:03:14;9.90;99.90
45837;DHT22;31548;51.420;-0.040;2023-04-30T02:05:43;9.90;99.90
45837;DHT22;31548;51.420;-0.040;2023-04-30T02:08:11;9.90;99.90
45837;DHT22;31548;51.420;-0.040;2023-04-30T02:10:39;9.80;99.90
45837;DHT22;31548;51.420;-0.040;2023-04-30T02:13:07;9.70;99.90
45837;DHT22;31548;51.420;-0.040;2023-04-30T02:15:35;9.80;99.90
45837;DHT22;31548;51.420;-0.040;2023-04-30T02:18:06;9.70;99.90
45837;DHT22;31548;51.420;-0.040;2023-04-30T02:20:33;9.70;99.90
45837;DHT22;31548;51.420;-0.040;2023-04-30T02:23:01;9.70;99.90
45837;DHT22;31548;51.420;-0.040;2023-04-30T02:25:28;9.70;99.90
45837;DHT22;31548;51.420;-0.040;2023-04-30T02:27:56;9.70;99.90
45837;DHT22;31548;51.420;-0.040;2023-04-30T02:30:24;9.70;99.90
45837;DHT22;31548;51.420;-0.040;2023-04-30T02:32:52;9.70;99.90
45837;DHT22;31548;51.420;-0.040;2023-04-30T02:35:20;9.60;99.90
45837;DHT22;31548;51.420;-0.040;2023-04-30T02:37:50;9.60;99.90
45837;DHT22;31548;51.420;-0.040;2023-04-30T02:40:20;9.60;99.90
45837;DHT22;31548;51.420;-0.040;2023-04-30T02:42:48;9.60;99.90
45837;DHT22;31548;51.420;-0.040;2023-04-30T02:45:16;9.50;99.90
45837;DHT22;31548;51.420;-0.040;2023-04-30T02:47:44;9.60;99.90
45837;DHT22;31548;51.420;-0.040;2023-04-30T02:50:12;9.50;99.90
45837;DHT22;31548;51.420;-0.040;2023-04-30T02:52:39;9.50;99.90
45837;DHT22;31548;51.420;-0.040;2023-04-30T02:55:07;9.40;99.90
45837;DHT22;31548;51.420;-0.040;2023-04-30T02:57:35;9.40;99.90
45837;DHT22;31548;51.420;-0.040;2023-04-30T03:00:03;9.40;99.90
45837;DHT22;31548;51.420;-0.040;2023-04-30T03:02:32;9.40;99.90
45837;DHT22;31548;51.420;-0.040;2023-04-30T03:05:01;9.30;99.90
45837;DHT22;31548;51.420;-0.040;2023-04-30T03:07:29;9.30;99.90
45837;DHT22;31548;51.420;-0.040;2023-04-30T03:09:58;9.30;99.90
45837;DHT22;31548;51.420;-0.040;2023-04-30T03:12:26;9.20;99.90
45837;DHT22;31548;51.420;-0.040;2023-04-30T03:14:54;9.20;99.90
45837;DHT22;31548;51.420;-0.040;2023-04-30T03:17:21;9.20;99.90
45837;DHT22;31548;51.420;-0.040;2023-04-30T03:19:51;9.20;99.90
45837;DHT22;31548;51.420;-0.040;2023-04-30T03:22:19;9.20;99.90
45837;DHT22;31548;51.420;-0.040;2023-04-30T03:24:50;9.20;99.90
45837;DHT22;31548;51.420;-0.040;2023-04-30T03:27:18;9.20;99.90
45837;DHT22;31548;51.420;-0.040;2023-04-30T03:29:46;9.10;99.90
45837;DHT22;31548;51.420;-0.040;2023-04-30T03:32:15;9.10;99.90
45837;DHT22;31548;51.420;-0.040;2023-04-30T03:34:42;9.00;99.90
45837;DHT22;31548;51.420;-0.040;2023-04-30T03:37:10;9.00;99.90
45837;DHT22;31548;51.420;-0.040;2023-04-30T03:39:38;9.00;99.90
45837;DHT22;31548;51.420;-0.040;2023-04-30T03:42:06;9.00;99.90
45837;DHT22;31548;51.420;-0.040;2023-04-30T03:44:34;9.00;99.90
45837;DHT22;31548;51.420;-0.040;2023-04-30T03:47:02;9.00;99.90
45837;DHT22;31548;51.420;-0.040;2023-04-30T03:49:30;8.90;99.90
45837;DHT22;31548;51.420;-0.040;2023-04-30T03:51:58;8.90;99.90
45837;DHT22;31548;51.420;-0.040;2023-04-30T03:54:27;8.80;99.90
45837;DHT22;31548;51.420;-0.040;2023-04-30T03:56:56;8.80;99.90
45837;DHT22;31548;51.420;-0.040;2023-04-30T03:59:24;8.80;99.90
45837;DHT22;31548;51.420;-0.040;2023-04-30T04:01:52;8.80;99.90
45837;DHT22;31548;51.420;-0.040;2023-04-30T04:04:21;8.80;99.90
45837;DHT22;31548;51.420;-0.040;2023-04-30T04:06:49;8.80;99.90
45837;DHT22;31548;51.420;-0.040;2023-04-30T04:09:17;8.80;99.90
45837;DHT22;31548;51.420;-0.040;2023-04-30T04:11:45;8.70;99.90
45837;DHT22;31548;51.420;-0.040;2023-04-30T04:14:13;8.70;99.90
45837;DHT22;31548;51.420;-0.040;2023-04-30T04:16:41;8.70;99.90
45837;DHT22;31548;51.420;-0.040;2023-04-30T04:19:09;8.70;99.90
45837;DHT22;31548;51.420;-0.040;2023-04-30T04:21:39;8.70;99.90
45837;DHT22;31548;51.420;-0.040;2023-04-30T04:24:13;8.70;99.90
45837;DHT22;31548;51.420;-0.040;2023-04-30T04:26:41;8.70;99.90
45837;DHT22;31548;51.420;-0.040;2023-04-30T04:29:09;8.60;99.90
45837;DHT22;31548;51.420;-0.040;2023-04-30T04:31:38;8.60;99.90
45837;DHT22;31548;51.420;-0.040;2023-04-30T04:34:07;8.60;99.90
45837;DHT22;31548;51.420;-0.040;2023-04-30T04:36:35;8.50;99.90
45837;DHT22;31548;51.420;-0.040;2023-04-30T04:39:02;8.60;99.90
45837;DHT22;31548;51.420;-0.040;2023-04-30T04:41:31;8.50;99.90
45837;DHT22;31548;51.420;-0.040;2023-04-30T04:43:59;8.50;99.90
45837;DHT22;31548;51.420;-0.040;2023-04-30T04:46:29;8.50;99.90
45837;DHT22;31548;51.420;-0.040;2023-04-30T04:48:58;8.50;99.90
45837;DHT22;31548;51.420;-0.040;2023-04-30T04:51:25;8.50;99.90
45837;DHT22;31548;51.420;-0.040;2023-04-30T04:53:54;8.50;99.90
45837;DHT22;31548;51.420;-0.040;2023-04-30T04:56:21;8.50;99.90
45837;DHT22;31548;51.420;-0.040;2023-04-30T04:58:49;8.50;99.90
45837;DHT22;31548;51.420;-0.040;2023-04-30T05:01:16;8.40;99.90
45837;DHT22;31548;51.420;-0.040;2023-04-30T05:03:46;8.40;99.90
45837;DHT22;31548;51.420;-0.040;2023-04-30T05:06:14;8.40;99.90
45837;DHT22;31548;51.420;-0.040;2023-04-30T05:08:41;8.40;99.90
45837;DHT22;31548;51.420;-0.040;2023-04-30T05:11:10;8.50;99.90
45837;DHT22;31548;51.420;-0.040;2023-04-30T05:13:41;8.50;99.90
45837;DHT22;31548;51.420;-0.040;2023-04-30T05:16:09;8.60;99.90
45837;DHT22;31548;51.420;-0.040;2023-04-30T05:18:36;8.60;99.90
45837;DHT22;31548;51.420;-0.040;2023-04-30T05:21:04;8.60;99.90
45837;DHT22;31548;51.420;-0.040;2023-04-30T05:23:33;8.60;99.90
45837;DHT22;31548;51.420;-0.040;2023-04-30T05:26:01;8.70;99.90
45837;DHT22;31548;51.420;-0.040;2023-04-30T05:28:32;8.70;99.90
45837;DHT22;31548;51.420;-0.040;2023-04-30T05:31:00;8.70;99.90
45837;DHT22;31548;51.420;-0.040;2023-04-30T05:33:27;8.70;99.90
45837;DHT22;31548;51.420;-0.040;2023-04-30T05:35:55;8.80;99.90
45837;DHT22;31548;51.420;-0.040;2023-04-30T05:38:22;8.80;99.90
45837;DHT22;31548;51.420;-0.040;2023-04-30T05:40:50;8.80;99.90
45837;DHT22;31548;51.420;-0.040;2023-04-30T05:43:17;8.80;99.90
45837;DHT22;31548;51.420;-0.040;2023-04-30T05:45:45;8.90;99.90
45837;DHT22;31548;51.420;-0.040;2023-04-30T05:48:13;8.90;99.90
45837;DHT22;31548;51.420;-0.040;2023-04-30T05:50:40;9.00;99.90
45837;DHT22;31548;51.420;-0.040;2023-04-30T05:53:09;9.00;99.90
45837;DHT22;31548;51.420;-0.040;2023-04-30T05:55:37;9.10;99.90
45837;DHT22;31548;51.420;-0.040;2023-04-30T05:58:04;9.10;99.90
45837;DHT22;31548;51.420;-0.040;2023-04-30T06:00:32;9.20;99.90
45837;DHT22;31548;51.420;-0.040;2023-04-30T06:03:00;9.30;99.90
45837;DHT22;31548;51.420;-0.040;2023-04-30T06:05:28;9.30;99.90
45837;DHT22;31548;51.420;-0.040;2023-04-30T06:07:56;9.30;99.90
45837;DHT22;31548;51.420;-0.040;2023-04-30T06:10:23;9.40;99.90
45837;DHT22;31548;51.420;-0.040;2023-04-30T06:12:52;9.50;99.90
45837;DHT22;31548;51.420;-0.040;2023-04-30T06:15:21;9.50;99.90
45837;DHT22;31548;51.420;-0.040;2023-04-30T06:17:48;9.60;99.90
45837;DHT22;31548;51.420;-0.040;2023-04-30T06:20:17;9.60;99.90
45837;DHT22;31548;51.420;-0.040;2023-04-30T06:22:44;9.70;99.90
45837;DHT22;31548;51.420;-0.040;2023-04-30T06:25:12;9.70;99.90
45837;DHT22;31548;51.420;-0.040;2023-04-30T06:27:39;9.80;99.90
45837;DHT22;31548;51.420;-0.040;2023-04-30T06:30:07;9.90;99.90
45837;DHT22;31548;51.420;-0.040;2023-04-30T06:32:35;9.90;99.90
45837;DHT22;31548;51.420;-0.040;2023-04-30T06:35:02;10.00;99.90
45837;DHT22;31548;51.420;-0.040;2023-04-30T06:37:31;10.10;99.90
45837;DHT22;31548;51.420;-0.040;2023-04-30T06:40:04;10.10;99.90
45837;DHT22;31548;51.420;-0.040;2023-04-30T06:42:32;10.20;99.90
45837;DHT22;31548;51.420;-0.040;2023-04-30T06:45:01;10.30;99.90
45837;DHT22;31548;51.420;-0.040;2023-04-30T06:47:32;10.30;99.90
45837;DHT22;31548;51.420;-0.040;2023-04-30T06:50:05;10.40;99.90
45837;DHT22;31548;51.420;-0.040;2023-04-30T06:52:32;10.40;99.90
45837;DHT22;31548;51.420;-0.040;2023-04-30T06:55:00;10.50;99.90
45837;DHT22;31548;51.420;-0.040;2023-04-30T06:57:27;10.60;99.90
45837;DHT22;31548;51.420;-0.040;2023-04-30T06:59:55;10.70;99.90
45837;DHT22;31548;51.420;-0.040;2023-04-30T07:02:23;10.70;99.90
45837;DHT22;31548;51.420;-0.040;2023-04-30T07:04:51;10.80;99.90
45837;DHT22;31548;51.420;-0.040;2023-04-30T07:07:18;10.80;99.90
45837;DHT22;31548;51.420;-0.040;2023-04-30T07:09:46;11.00;99.90
45837;DHT22;31548;51.420;-0.040;2023-04-30T07:12:16;11.00;99.90
45837;DHT22;31548;51.420;-0.040;2023-04-30T07:14:43;11.10;99.90
45837;DHT22;31548;51.420;-0.040;2023-04-30T07:17:11;11.20;99.90
45837;DHT22;31548;51.420;-0.040;2023-04-30T07:19:38;11.30;99.90
45837;DHT22;31548;51.420;-0.040;2023-04-30T07:22:06;11.30;99.90
45837;DHT22;31548;51.420;-0.040;2023-04-30T07:24:33;11.40;99.90
45837;DHT22;31548;51.420;-0.040;2023-04-30T07:27:00;11.60;99.90
45837;DHT22;31548;51.420;-0.040;2023-04-30T07:29:30;11.60;99.90
45837;DHT22;31548;51.420;-0.040;2023-04-30T07:31:57;11.70;99.90
45837;DHT22;31548;51.420;-0.040;2023-04-30T07:34:25;11.80;99.90
45837;DHT22;31548;51.420;-0.040;2023-04-30T07:36:54;11.90;99.90
45837;DHT22;31548;51.420;-0.040;2023-04-30T07:39:21;12.00;99.90
45837;DHT22;31548;51.420;-0.040;2023-04-30T07:41:48;12.10;99.90
45837;DHT22;31548;51.420;-0.040;2023-04-30T07:44:16;12.20;99.90
45837;DHT22;31548;51.420;-0.040;2023-04-30T07:46:44;12.30;99.90
45837;DHT22;31548;51.420;-0.040;2023-04-30T07:49:11;12.40;99.90
45837;DHT22;31548;51.420;-0.040;2023-04-30T07:51:38;12.50;99.90
45837;DHT22;31548;51.420;-0.040;2023-04-30T07:54:06;12.70;99.90
45837;DHT22;31548;51.420;-0.040;2023-04-30T07:56:34;12.80;99.90
45837;DHT22;31548;51.420;-0.040;2023-04-30T07:59:02;12.90;99.90
45837;DHT22;31548;51.420;-0.040;2023-04-30T08:01:29;13.00;99.90
45837;DHT22;31548;51.420;-0.040;2023-04-30T08:03:57;13.10;99.90
45837;DHT22;31548;51.420;-0.040;2023-04-30T08:06:25;13.30;99.90
45837;DHT22;31548;51.420;-0.040;2023-04-30T08:08:55;13.40;99.90
45837;DHT22;31548;51.420;-0.040;2023-04-30T08:11:22;13.50;99.90
45837;DHT22;31548;51.420;-0.040;2023-04-30T08:13:49;13.60;99.90
45837;DHT22;31548;51.420;-0.040;2023-04-30T08:16:17;13.80;99.90
45837;DHT22;31548;51.420;-0.040;2023-04-30T08:18:44;13.90;99.90
45837;DHT22;31548;51.420;-0.040;2023-04-30T08:21:13;14.00;99.90
45837;DHT22;31548;51.420;-0.040;2023-04-30T08:23:40;14.10;99.90
45837;DHT22;31548;51.420;-0.040;2023-04-30T08:26:08;14.20;99.90
45837;DHT22;31548;51.420;-0.040;2023-04-30T08:28:36;14.30;99.90
45837;DHT22;31548;51.420;-0.040;2023-04-30T08:31:03;14.30;99.90
45837;DHT22;31548;51.420;-0.040;2023-04-30T08:33:31;14.40;99.90
45837;DHT22;31548;51.420;-0.040;2023-04-30T08:35:58;14.50;99.90
45837;DHT22;31548;51.420;-0.040;2023-04-30T08:38:27;14.50;99.90
45837;DHT22;31548;51.420;-0.040;2023-04-30T08:41:14;14.50;99.90
45837;DHT22;31548;51.420;-0.040;2023-04-30T08:43:44;14.60;99.90
45837;DHT22;31548;51.420;-0.040;2023-04-30T08:46:13;14.60;99.90
45837;DHT22;31548;51.420;-0.040;2023-04-30T08:48:45;14.70;99.90
45837;DHT22;31548;51.420;-0.040;2023-04-30T08:51:14;14.70;99.90
45837;DHT22;31548;51.420;-0.040;2023-04-30T08:53:43;14.80;99.90
45837;DHT22;31548;51.420;-0.040;2023-04-30T08:56:12;15.00;99.90
45837;DHT22;31548;51.420;-0.040;2023-04-30T08:58:40;15.10;99.90
45837;DHT22;31548;51.420;-0.040;2023-04-30T09:01:08;15.10;99.90
45837;DHT22;31548;51.420;-0.040;2023-04-30T09:03:36;15.20;99.90
45837;DHT22;31548;51.420;-0.040;2023-04-30T09:06:04;15.30;99.90
45837;DHT22;31548;51.420;-0.040;2023-04-30T09:08:46;15.30;99.90
45837;DHT22;31548;51.420;-0.040;2023-04-30T09:11:25;15.40;99.90
45837;DHT22;31548;51.420;-0.040;2023-04-30T09:13:55;15.50;99.90
45837;DHT22;31548;51.420;-0.040;2023-04-30T09:16:24;15.60;99.90
45837;DHT22;31548;51.420;-0.040;2023-04-30T09:18:52;15.70;99.90
45837;DHT22;31548;51.420;-0.040;2023-04-30T09:21:31;15.80;99.90
45837;DHT22;31548;51.420;-0.040;2023-04-30T09:24:01;15.90;99.90
45837;DHT22;31548;51.420;-0.040;2023-04-30T09:26:38;16.10;99.90
45837;DHT22;31548;51.420;-0.040;2023-04-30T09:29:05;16.20;99.90
45837;DHT22;31548;51.420;-0.040;2023-04-30T09:31:37;16.30;99.90
45837;DHT22;31548;51.420;-0.040;2023-04-30T09:34:05;16.30;99.90
45837;DHT22;31548;51.420;-0.040;2023-04-30T09:36:34;16.40;99.90
45837;DHT22;31548;51.420;-0.040;2023-04-30T09:39:20;16.50;99.90
45837;DHT22;31548;51.420;-0.040;2023-04-30T09:41:49;16.70;99.90
45837;DHT22;31548;51.420;-0.040;2023-04-30T09:44:31;16.70;99.90
45837;DHT22;31548;51.420;-0.040;2023-04-30T09:47:02;16.90;99.90
45837;DHT22;31548;51.420;-0.040;2023-04-30T09:49:30;17.00;99.90
45837;DHT22;31548;51.420;-0.040;2023-04-30T09:51:58;17.00;99.90
45837;DHT22;31548;51.420;-0.040;2023-04-30T09:54:30;17.10;99.90
45837;DHT22;31548;51.420;-0.040;2023-04-30T09:57:00;17.20;99.90
45837;DHT22;31548;51.420;-0.040;2023-04-30T09:59:33;17.30;99.90
45837;DHT22;31548;51.420;-0.040;2023-04-30T10:02:07;17.20;99.90
45837;DHT22;31548;51.420;-0.040;2023-04-30T10:04:37;17.20;99.90
45837;DHT22;31548;51.420;-0.040;2023-04-30T10:07:28;17.30;99.90
45837;DHT22;31548;51.420;-0.040;2023-04-30T10:10:03;17.30;99.90
45837;DHT22;31548;51.420;-0.040;2023-04-30T10:15:30;17.30;99.90
45837;DHT22;31548;51.420;-0.040;2023-04-30T10:18:05;17.20;99.90
45837;DHT22;31548;51.420;-0.040;2023-04-30T10:20:34;17.30;99.90
45837;DHT22;31548;51.420;-0.040;2023-04-30T10:23:03;17.30;99.90
45837;DHT22;31548;51.420;-0.040;2023-04-30T10:25:31;17.40;99.90
45837;DHT22;31548;51.420;-0.040;2023-04-30T10:28:01;17.30;99.90
45837;DHT22;31548;51.420;-0.040;2023-04-30T10:30:31;17.40;99.90
45837;DHT22;31548;51.420;-0.040;2023-04-30T10:33:14;17.50;99.90
45837;DHT22;31548;51.420;-0.040;2023-04-30T10:36:03;17.50;99.90
45837;DHT22;31548;51.420;-0.040;2023-04-30T10:38:32;17.40;99.90
45837;DHT22;31548;51.420;-0.040;2023-04-30T10:41:01;17.40;99.90
45837;DHT22;31548;51.420;-0.040;2023-04-30T10:43:29;17.50;99.90
45837;DHT22;31548;51.420;-0.040;2023-04-30T10:45:57;17.40;99.90
45837;DHT22;31548;51.420;-0.040;2023-04-30T10:48:25;17.80;99.90
45837;DHT22;31548;51.420;-0.040;2023-04-30T10:50:58;17.90;99.90
45837;DHT22;31548;51.420;-0.040;2023-04-30T10:53:29;17.70;99.90
45837;DHT22;31548;51.420;-0.040;2023-04-30T10:58:29;18.00;99.90
45837;DHT22;31548;51.420;-0.040;2023-04-30T11:01:07;18.20;99.90
45837;DHT22;31548;51.420;-0.040;2023-04-30T11:03:35;18.30;99.90
45837;DHT22;31548;51.420;-0.040;2023-04-30T11:06:16;18.20;99.90
45837;DHT22;31548;51.420;-0.040;2023-04-30T11:08:46;18.10;99.90
45837;DHT22;31548;51.420;-0.040;2023-04-30T11:11:18;18.20;99.90
45837;DHT22;31548;51.420;-0.040;2023-04-30T11:13:58;18.30;99.90
45837;DHT22;31548;51.420;-0.040;2023-04-30T11:16:29;18.50;99.90
45837;DHT22;31548;51.420;-0.040;2023-04-30T11:19:12;18.50;99.90
45837;DHT22;31548;51.420;-0.040;2023-04-30T11:24:49;18.60;99.90
45837;DHT22;31548;51.420;-0.040;2023-04-30T11:27:27;18.90;99.90
45837;DHT22;31548;51.420;-0.040;2023-04-30T11:29:56;18.70;99.90
45837;DHT22;31548;51.420;-0.040;2023-04-30T11:32:26;18.80;99.90
45837;DHT22;31548;51.420;-0.040;2023-04-30T11:34:59;19.10;99.90
45837;DHT22;31548;51.420;-0.040;2023-04-30T11:37:35;19.00;99.90
45837;DHT22;31548;51.420;-0.040;2023-04-30T11:40:08;19.20;99.90
45837;DHT22;31548;51.420;-0.040;2023-04-30T11:42:38;19.30;99.90
45837;DHT22;31548;51.420;-0.040;2023-04-30T11:45:11;19.20;99.90
45837;DHT22;31548;51.420;-0.040;2023-04-30T11:47:40;19.20;99.90
45837;DHT22;31548;51.420;-0.040;2023-04-30T11:50:09;19.30;99.90
45837;DHT22;31548;51.420;-0.040;2023-04-30T11:52:39;19.30;99.90
45837;DHT22;31548;51.420;-0.040;2023-04-30T11:55:12;19.40;99.90
45837;DHT22;31548;51.420;-0.040;2023-04-30T11:57:42;19.30;99.90
45837;DHT22;31548;51.420;-0.040;2023-04-30T12:00:20;19.30;99.90
45837;DHT22;31548;51.420;-0.040;2023-04-30T12:02:49;19.70;99.90
45837;DHT22;31548;51.420;-0.040;2023-04-30T12:05:19;19.90;99.90
45837;DHT22;31548;51.420;-0.040;2023-04-30T12:08:01;20.10;99.90
45837;DHT22;31548;51.420;-0.040;2023-04-30T12:10:37;20.20;99.70
45837;DHT22;31548;51.420;-0.040;2023-04-30T12:13:04;20.20;99.10
45837;DHT22;31548;51.420;-0.040;2023-04-30T12:15:31;20.20;98.80
45837;DHT22;31548;51.420;-0.040;2023-04-30T12:18:12;20.40;99.60
45837;DHT22;31548;51.420;-0.040;2023-04-30T12:20:41;20.50;98.70
45837;DHT22;31548;51.420;-0.040;2023-04-30T12:23:09;20.70;98.50
45837;DHT22;31548;51.420;-0.040;2023-04-30T12:25:40;20.80;98.10
45837;DHT22;31548;51.420;-0.040;2023-04-30T12:28:12;20.60;97.20
45837;DHT22;31548;51.420;-0.040;2023-04-30T12:30:41;20.60;97.70
45837;DHT22;31548;51.420;-0.040;2023-04-30T12:33:09;20.70;98.30
45837;DHT22;31548;51.420;-0.040;2023-04-30T12:35:41;20.80;98.00
45837;DHT22;31548;51.420;-0.040;2023-04-30T12:38:09;21.00;97.60
45837;DHT22;31548;51.420;-0.040;2023-04-30T12:40:37;21.10;97.10
45837;DHT22;31548;51.420;-0.040;2023-04-30T12:43:07;20.90;96.60
45837;DHT22;31548;51.420;-0.040;2023-04-30T12:45:51;20.90;97.00
45837;DHT22;31548;51.420;-0.040;2023-04-30T12:48:24;21.00;97.00
45837;DHT22;31548;51.420;-0.040;2023-04-30T12:50:58;20.80;96.00
45837;DHT22;31548;51.420;-0.040;2023-04-30T12:53:27;20.70;96.80
45837;DHT22;31548;51.420;-0.040;2023-04-30T12:56:11;20.60;96.20
45837;DHT22;31548;51.420;-0.040;2023-04-30T12:58:39;20.60;96.90
45837;DHT22;31548;51.420;-0.040;2023-04-30T13:01:11;20.60;96.60
45837;DHT22;31548;51.420;-0.040;2023-04-30T13:03:39;20.70;96.00
45837;DHT22;31548;51.420;-0.040;2023-04-30T13:06:08;20.60;97.00
45837;DHT22;31548;51.420;-0.040;2023-04-30T13:08:36;20.90;97.20
45837;DHT22;31548;51.420;-0.040;2023-04-30T13:11:22;21.20;97.20
45837;DHT22;31548;51.420;-0.040;2023-04-30T13:13:51;21.20;96.40
45837;DHT22;31548;51.420;-0.040;2023-04-30T13:16:18;21.20;96.20
45837;DHT22;31548;51.420;-0.040;2023-04-30T13:18:46;21.20;96.00
45837;DHT22;31548;51.420;-0.040;2023-04-30T13:21:14;21.20;96.20
45837;DHT22;31548;51.420;-0.040;2023-04-30T13:23:41;21.20;95.50
45837;DHT22;31548;51.420;-0.040;2023-04-30T13:26:18;21.30;95.80
45837;DHT22;31548;51.420;-0.040;2023-04-30T13:28:47;21.20;95.40
45837;DHT22;31548;51.420;-0.040;2023-04-30T13:31:15;21.40;96.20
45837;DHT22;31548;51.420;-0.040;2023-04-30T13:33:43;21.40;95.50
45837;DHT22;31548;51.420;-0.040;2023-04-30T13:36:10;21.30;96.10
45837;DHT22;31548;51.420;-0.040;2023-04-30T13:38:38;21.60;95.50
45837;DHT22;31548;51.420;-0.040;2023-04-30T13:41:06;21.30;94.70
45837;DHT22;31548;51.420;-0.040;2023-04-30T13:43:34;21.30;94.40
45837;DHT22;31548;51.420;-0.040;2023-04-30T13:46:01;21.30;94.90
45837;DHT22;31548;51.420;-0.040;2023-04-30T13:48:29;21.20;95.30
45837;DHT22;31548;51.420;-0.040;2023-04-30T13:50:57;21.20;94.30
45837;DHT22;31548;51.420;-0.040;2023-04-30T13:53:24;21.00;93.30
45837;DHT22;31548;51.420;-0.040;2023-04-30T13:55:52;20.60;93.60
45837;DHT22;31548;51.420;-0.040;2023-04-30T13:58:20;20.70;94.70
45837;DHT22;31548;51.420;-0.040;2023-04-30T14:00:48;20.70;94.40
45837;DHT22;31548;51.420;-0.040;2023-04-30T14:03:17;20.90;95.40
45837;DHT22;31548;51.420;-0.040;2023-04-30T14:05:45;20.80;93.60
45837;DHT22;31548;51.420;-0.040;2023-04-30T14:08:13;21.00;94.90
45837;DHT22;31548;51.420;-0.040;2023-04-30T14:10:41;21.30;93.90
45837;DHT22;31548;51.420;-0.040;2023-04-30T14:13:08;21.10;93.60
45837;DHT22;31548;51.420;-0.040;2023-04-30T14:15:36;21.30;94.40
45837;DHT22;31548;51.420;-0.040;2023-04-30T14:18:04;21.40;93.90
45837;DHT22;31548;51.420;-0.040;2023-04-30T14:20:35;21.20;93.20
45837;DHT22;31548;51.420;-0.040;2023-04-30T14:23:03;21.30;93.40
45837;DHT22;31548;51.420;-0.040;2023-04-30T14:25:30;21.50;93.50
45837;DHT22;31548;51.420;-0.040;2023-04-30T14:27:57;21.30;93.20
45837;DHT22;31548;51.420;-0.040;2023-04-30T14:30:25;21.30;93.10
45837;DHT22;31548;51.420;-0.040;2023-04-30T14:32:53;21.20;92.80
45837;DHT22;31548;51.420;-0.040;2023-04-30T14:35:22;21.00;93.00
45837;DHT22;31548;51.420;-0.040;2023-04-30T14:37:50;21.10;94.20
45837;DHT22;31548;51.420;-0.040;2023-04-30T14:40:18;21.00;92.90
45837;DHT22;31548;51.420;-0.040;2023-04-30T14:42:47;20.90;92.90
45837;DHT22;31548;51.420;-0.040;2023-04-30T14:45:16;20.90;93.30
45837;DHT22;31548;51.420;-0.040;2023-04-30T14:47:44;21.00;93.60
45837;DHT22;31548;51.420;-0.040;2023-04-30T14:50:12;21.00;93.60
45837;DHT22;31548;51.420;-0.040;2023-04-30T14:52:40;20.90;93.40
45837;DHT22;31548;51.420;-0.040;2023-04-30T14:55:08;20.90;93.80
45837;DHT22;31548;51.420;-0.040;2023-04-30T14:57:35;20.90;93.40
45837;DHT22;31548;51.420;-0.040;2023-04-30T15:00:03;20.90;93.90
45837;DHT22;31548;51.420;-0.040;2023-04-30T15:02:32;20.90;93.50
45837;DHT22;31548;51.420;-0.040;2023-04-30T15:05:05;20.60;92.50
45837;DHT22;31548;51.420;-0.040;2023-04-30T15:07:33;20.50;94.00
45837;DHT22;31548;51.420;-0.040;2023-04-30T15:10:02;20.50;93.70
45837;DHT22;31548;51.420;-0.040;2023-04-30T15:12:30;20.60;94.50
45837;DHT22;31548;51.420;-0.040;2023-04-30T15:14:58;20.60;93.90
45837;DHT22;31548;51.420;-0.040;2023-04-30T15:17:27;20.50;93.90
45837;DHT22;31548;51.420;-0.040;2023-04-30T15:19:55;20.20;94.80
45837;DHT22;31548;51.420;-0.040;2023-04-30T15:22:25;20.40;94.60
45837;DHT22;31548;51.420;-0.040;2023-04-30T15:24:53;20.50;95.40
45837;DHT22;31548;51.420;-0.040;2023-04-30T15:27:22;20.30;93.60
45837;DHT22;31548;51.420;-0.040;2023-04-30T15:29:49;20.10;93.60
45837;DHT22;31548;51.420;-0.040;2023-04-30T15:32:17;20.20;93.80
45837;DHT22;31548;51.420;-0.040;2023-04-30T15:34:45;20.20;94.00
45837;DHT22;31548;51.420;-0.040;2023-04-30T15:37:13;20.30;94.00
45837;DHT22;31548;51.420;-0.040;2023-04-30T15:39:41;20.20;93.80
45837;DHT22;31548;51.420;-0.040;2023-04-30T15:42:08;20.20;93.90
45837;DHT22;31548;51.420;-0.040;2023-04-30T15:44:36;20.20;94.20
45837;DHT22;31548;51.420;-0.040;2023-04-30T15:47:03;20.40;94.50
45837;DHT22;31548;51.420;-0.040;2023-04-30T15:49:31;20.30;94.00
45837;DHT22;31548;51.420;-0.040;2023-04-30T15:51:59;20.40;95.40
45837;DHT22;31548;51.420;-0.040;2023-04-30T15:54:26;20.50;94.80
45837;DHT22;31548;51.420;-0.040;2023-04-30T15:56:54;20.30;93.80
45837;DHT22;31548;51.420;-0.040;2023-04-30T15:59:22;20.30;94.20